createdAt,value
2022-12-24T00:02:08.921Z,11.72
2022-12-24T00:05:10.834Z,11.63
2022-12-24T00:08:12.267Z,11.56
2022-12-24T00:11:14.167Z,11.62
2022-12-24T00:14:15.601Z,11.66
2022-12-24T00:17:17.119Z,11.66
2022-12-24T00:20:19.641Z,11.69
2022-12-24T00:23:21.308Z,11.74
2022-12-24T00:26:22.795Z,11.74
2022-12-24T00:29:24.291Z,11.75
2022-12-24T00:32:25.725Z,11.64
2022-12-24T00:35:27.121Z,11.73
2022-12-24T00:38:28.499Z,11.88
2022-12-24T00:41:30.915Z,11.90
2022-12-24T00:44:32.306Z,11.86
2022-12-24T00:47:33.713Z,11.82
2022-12-24T00:50:35.135Z,11.68
2022-12-24T00:53:36.534Z,11.50
2022-12-24T00:56:37.937Z,11.34
2022-12-24T00:59:39.302Z,11.37
2022-12-24T01:02:40.913Z,11.44
2022-12-24T01:05:42.403Z,11.47
2022-12-24T01:08:44.130Z,11.51
2022-12-24T01:11:46.239Z,11.47
2022-12-24T01:14:47.787Z,11.53
2022-12-24T01:17:49.202Z,11.42
2022-12-24T01:20:59.448Z,11.53
2022-12-24T01:24:00.846Z,11.70
2022-12-24T01:27:02.236Z,11.70
2022-12-24T01:30:05.974Z,11.59
2022-12-24T01:33:07.402Z,11.58
2022-12-24T01:36:09.218Z,11.43
2022-12-24T01:39:10.602Z,11.43
2022-12-24T01:42:40.442Z,11.54
2022-12-24T01:45:54.523Z,11.65
2022-12-24T01:48:59.389Z,11.64
2022-12-24T01:52:09.121Z,11.73
2022-12-24T01:55:16.765Z,11.68
2022-12-24T01:58:21.023Z,11.68
2022-12-24T02:01:22.889Z,11.66
2022-12-24T02:04:50.858Z,11.58
2022-12-24T02:07:52.769Z,11.49
2022-12-24T02:10:54.184Z,11.41
2022-12-24T02:14:00.085Z,11.51
2022-12-24T02:17:31.713Z,11.58
2022-12-24T02:20:56.795Z,11.55
2022-12-24T02:24:33.871Z,11.35
2022-12-24T02:27:38.544Z,11.31
2022-12-24T02:30:50.917Z,11.32
2022-12-24T02:34:06.276Z,11.32
2022-12-24T02:37:15.951Z,11.24
2022-12-24T02:40:27.427Z,11.38
2022-12-24T02:43:37.152Z,11.33
2022-12-24T02:46:38.617Z,11.32
2022-12-24T02:49:44.295Z,11.31
2022-12-24T02:52:47.088Z,11.32
2022-12-24T02:56:05.830Z,11.19
2022-12-24T02:59:28.905Z,11.14
2022-12-24T03:02:47.997Z,11.14
2022-12-24T03:05:59.987Z,11.09
2022-12-24T03:09:14.724Z,11.16
2022-12-24T03:12:22.571Z,11.15
2022-12-24T03:15:25.634Z,11.04
2022-12-24T03:18:28.920Z,11.01
2022-12-24T03:21:36.370Z,11.07
2022-12-24T03:24:38.265Z,11.04
2022-12-24T03:27:40.649Z,11.03
2022-12-24T03:30:43.720Z,10.94
2022-12-24T03:33:45.650Z,10.91
2022-12-24T03:36:48.253Z,10.92
2022-12-24T03:39:49.745Z,10.96
2022-12-24T03:42:51.179Z,10.94
2022-12-24T03:45:52.599Z,10.95
2022-12-24T03:48:54.555Z,10.86
2022-12-24T03:51:56.105Z,10.81
2022-12-24T03:54:57.555Z,10.82
2022-12-24T03:57:58.964Z,10.85
2022-12-24T04:01:00.417Z,10.96
2022-12-24T04:04:01.821Z,10.94
2022-12-24T04:07:04.288Z,10.90
2022-12-24T04:10:06.164Z,10.89
2022-12-24T04:13:07.554Z,10.83
2022-12-24T04:16:14.684Z,10.89
2022-12-24T04:19:16.100Z,10.90
2022-12-24T04:22:18.001Z,10.88
2022-12-24T04:25:19.400Z,10.91
2022-12-24T04:28:20.895Z,10.93
2022-12-24T04:31:22.432Z,10.96
2022-12-24T04:34:23.923Z,10.97
2022-12-24T04:37:25.383Z,10.93
2022-12-24T04:40:26.779Z,10.98
2022-12-24T04:43:29.283Z,10.97
2022-12-24T04:46:31.422Z,11.02
2022-12-24T04:49:32.945Z,10.91
2022-12-24T04:52:34.876Z,10.88
2022-12-24T04:55:36.264Z,10.84
2022-12-24T04:58:37.691Z,10.78
2022-12-24T05:01:39.166Z,10.78
2022-12-24T05:04:40.714Z,10.72
2022-12-24T05:07:42.115Z,10.73
2022-12-24T05:10:43.548Z,10.70
2022-12-24T05:13:47.704Z,10.69
2022-12-24T05:16:49.336Z,10.71
2022-12-24T05:19:50.751Z,10.66
2022-12-24T05:23:10.729Z,10.66
2022-12-24T05:26:23.967Z,10.80
2022-12-24T05:29:25.551Z,10.73
2022-12-24T05:32:28.571Z,10.80
2022-12-24T05:35:29.967Z,10.77
2022-12-24T05:38:31.364Z,10.76
2022-12-24T05:41:33.019Z,10.77
2022-12-24T05:44:34.423Z,10.85
2022-12-24T05:47:42.910Z,10.81
2022-12-24T05:50:44.839Z,10.78
2022-12-24T05:53:46.964Z,10.74
2022-12-24T05:56:48.362Z,10.73
2022-12-24T05:59:49.835Z,10.81
2022-12-24T06:02:51.332Z,10.71
2022-12-24T06:06:04.715Z,10.66
2022-12-24T06:09:06.201Z,10.63
2022-12-24T06:12:07.668Z,10.67
2022-12-24T06:15:09.611Z,10.68
2022-12-24T06:18:11.056Z,10.64
2022-12-24T06:21:14.589Z,10.58
2022-12-24T06:24:16.022Z,10.59
2022-12-24T06:27:17.423Z,10.57
2022-12-24T06:30:19.039Z,10.60
2022-12-24T06:33:20.490Z,10.59
2022-12-24T06:36:24.913Z,10.60
2022-12-24T06:39:26.319Z,10.62
2022-12-24T06:42:27.701Z,10.72
2022-12-24T06:45:29.082Z,10.74
2022-12-24T06:48:31.089Z,10.78
2022-12-24T06:51:32.467Z,10.80
2022-12-24T06:54:33.867Z,10.83
2022-12-24T06:57:35.253Z,10.81
2022-12-24T07:00:37.011Z,10.85
2022-12-24T07:03:38.882Z,10.91
2022-12-24T07:06:41.960Z,10.89
2022-12-24T07:09:43.372Z,10.87
2022-12-24T07:12:44.979Z,10.88
2022-12-24T07:15:46.555Z,10.74
2022-12-24T07:18:48.044Z,10.69
2022-12-24T07:21:49.990Z,10.73
2022-12-24T07:24:51.453Z,10.71
2022-12-24T07:27:52.888Z,10.70
2022-12-24T07:30:54.722Z,10.68
2022-12-24T07:33:56.174Z,10.74
2022-12-24T07:36:57.686Z,10.65
2022-12-24T07:39:59.271Z,10.64
2022-12-24T07:43:00.742Z,10.66
2022-12-24T07:46:02.364Z,10.63
2022-12-24T07:49:03.857Z,10.68
2022-12-24T07:52:05.339Z,10.64
2022-12-24T07:55:07.094Z,10.61
2022-12-24T07:58:08.530Z,10.64
2022-12-24T08:01:13.709Z,10.61
2022-12-24T08:04:15.200Z,10.62
2022-12-24T08:07:16.596Z,10.60
2022-12-24T08:10:18.258Z,10.61
2022-12-24T08:13:19.643Z,10.58
2022-12-24T08:16:21.108Z,10.59
2022-12-24T08:19:23.304Z,10.60
2022-12-24T08:22:24.802Z,10.66
2022-12-24T08:25:26.207Z,10.70
2022-12-24T08:28:27.838Z,10.72
2022-12-24T08:31:29.817Z,10.73
2022-12-24T08:34:31.250Z,10.90
2022-12-24T08:37:32.774Z,10.90
2022-12-24T08:40:34.285Z,11.01
2022-12-24T08:43:35.745Z,10.97
2022-12-24T08:46:37.303Z,11.07
2022-12-24T08:49:39.961Z,11.10
2022-12-24T08:52:41.399Z,11.21
2022-12-24T08:55:42.947Z,11.19
2022-12-24T08:58:44.336Z,11.21
2022-12-24T09:01:45.901Z,11.28
2022-12-24T09:04:47.419Z,11.33
2022-12-24T09:07:48.847Z,11.37
2022-12-24T09:10:51.344Z,11.46
2022-12-24T09:13:54.312Z,11.57
2022-12-24T09:16:57.853Z,11.53
2022-12-24T09:19:59.880Z,11.67
2022-12-24T09:23:01.433Z,11.67
2022-12-24T09:26:12.152Z,11.68
2022-12-24T09:29:13.554Z,11.62
2022-12-24T09:32:14.991Z,11.59
2022-12-24T09:35:16.407Z,11.70
2022-12-24T09:38:18.386Z,11.86
2022-12-24T09:41:22.864Z,11.83
2022-12-24T09:44:49.006Z,11.80
2022-12-24T09:47:55.331Z,11.94
2022-12-24T09:51:08.614Z,12.00
2022-12-24T09:54:20.714Z,12.04
2022-12-24T09:57:43.054Z,12.18
2022-12-24T10:00:49.724Z,12.31
2022-12-24T10:03:51.894Z,12.36
2022-12-24T10:07:17.091Z,12.52
2022-12-24T10:10:24.351Z,12.63
2022-12-24T10:13:59.853Z,12.70
2022-12-24T10:17:27.280Z,12.87
2022-12-24T10:20:45.586Z,13.02
2022-12-24T10:23:57.715Z,13.04
2022-12-24T10:27:06.786Z,13.15
2022-12-24T10:30:17.513Z,13.19
2022-12-24T10:33:42.818Z,13.23
2022-12-24T10:36:44.282Z,13.24
2022-12-24T10:39:45.957Z,13.33
2022-12-24T10:42:51.412Z,13.19
2022-12-24T10:45:57.218Z,13.08
2022-12-24T10:49:02.157Z,13.16
2022-12-24T10:52:10.298Z,13.17
2022-12-24T10:55:17.335Z,13.05
2022-12-24T10:58:20.138Z,13.12
2022-12-24T11:01:48.938Z,13.36
2022-12-24T11:04:50.598Z,13.38
2022-12-24T11:08:03.382Z,13.53
2022-12-24T11:11:08.447Z,13.59
2022-12-24T11:14:15.907Z,13.87
2022-12-24T11:17:22.907Z,13.85
2022-12-24T11:20:28.084Z,14.02
2022-12-24T11:23:30.347Z,14.04
2022-12-24T11:26:31.891Z,13.98
2022-12-24T11:29:33.289Z,14.07
2022-12-24T11:32:34.823Z,14.14
2022-12-24T11:35:43.420Z,13.92
2022-12-24T11:38:53.541Z,13.70
2022-12-24T11:41:55.071Z,13.59
2022-12-24T11:44:58.057Z,13.50
2022-12-24T11:48:00.425Z,13.50
2022-12-24T11:51:07.888Z,13.43
2022-12-24T11:54:19.107Z,13.41
2022-12-24T11:57:25.128Z,13.40
2022-12-24T12:00:28.468Z,13.28
2022-12-24T12:03:35.235Z,13.22
2022-12-24T12:06:36.548Z,13.26
2022-12-24T12:09:43.018Z,13.23
2022-12-24T12:12:57.923Z,13.17
2022-12-24T12:16:25.823Z,13.14
2022-12-24T12:19:33.053Z,13.11
2022-12-24T12:22:58.553Z,13.14
2022-12-24T12:26:18.233Z,13.02
2022-12-24T12:29:45.206Z,12.89
2022-12-24T12:33:20.884Z,12.92
2022-12-24T12:36:43.553Z,12.96
2022-12-24T12:39:45.028Z,12.95
2022-12-24T12:43:19.257Z,12.97
2022-12-24T12:46:38.368Z,13.01
2022-12-24T12:49:53.489Z,12.99
2022-12-24T12:53:13.143Z,12.99
2022-12-24T12:56:23.931Z,12.96
2022-12-24T12:59:41.441Z,12.98
2022-12-24T13:02:50.359Z,12.93
2022-12-24T13:06:13.463Z,12.94
2022-12-24T13:09:42.179Z,12.90
2022-12-24T13:12:49.607Z,12.85
2022-12-24T13:16:00.286Z,12.91
2022-12-24T13:19:24.940Z,12.90
2022-12-24T13:22:26.633Z,12.89
2022-12-24T13:25:41.110Z,12.81
2022-12-24T13:28:43.367Z,12.76
2022-12-24T13:31:44.870Z,12.71
2022-12-24T13:34:54.933Z,12.60
2022-12-24T13:38:28.442Z,12.45
2022-12-24T13:41:41.334Z,12.30
2022-12-24T13:44:43.118Z,12.29
2022-12-24T13:47:44.621Z,12.15
2022-12-24T13:50:52.280Z,12.11
2022-12-24T13:53:59.450Z,11.98
2022-12-24T13:57:01.492Z,12.02
2022-12-24T14:00:09.190Z,11.96
2022-12-24T14:03:13.884Z,11.94
2022-12-24T14:06:27.660Z,11.95
2022-12-24T14:09:31.911Z,12.09
2022-12-24T14:12:47.857Z,12.11
2022-12-24T14:15:49.904Z,12.15
2022-12-24T14:19:10.129Z,12.21
2022-12-24T14:22:11.456Z,12.28
2022-12-24T14:25:17.419Z,12.23
2022-12-24T14:28:28.411Z,12.23
2022-12-24T14:31:29.857Z,12.18
2022-12-24T14:34:31.897Z,12.18
2022-12-24T14:37:34.951Z,12.14
2022-12-24T14:41:14.181Z,12.19
2022-12-24T14:44:35.460Z,12.12
2022-12-24T14:47:58.465Z,12.04
2022-12-24T14:51:23.147Z,11.93
2022-12-24T14:54:35.335Z,11.91
2022-12-24T14:57:36.800Z,11.88
2022-12-24T15:00:39.756Z,11.90
2022-12-24T15:03:41.310Z,11.92
2022-12-24T15:06:56.657Z,11.86
2022-12-24T15:09:58.237Z,11.90
2022-12-24T15:13:06.644Z,11.89
2022-12-24T15:16:13.785Z,11.85
2022-12-24T15:19:24.716Z,11.85
2022-12-24T15:22:31.232Z,11.82
2022-12-24T15:25:33.348Z,11.75
2022-12-24T15:28:39.121Z,11.71
2022-12-24T15:31:41.068Z,11.68
2022-12-24T15:34:45.324Z,11.64
2022-12-24T15:37:47.661Z,11.58
2022-12-24T15:40:50.081Z,11.52
2022-12-24T15:43:54.138Z,11.47
2022-12-24T15:47:04.699Z,11.44
2022-12-24T15:50:16.312Z,11.35
2022-12-24T15:53:22.596Z,11.29
2022-12-24T15:56:31.348Z,11.15
2022-12-24T15:59:38.089Z,11.09
2022-12-24T16:02:41.743Z,10.98
2022-12-24T16:05:43.537Z,10.94
2022-12-24T16:08:46.056Z,10.97
2022-12-24T16:11:47.559Z,10.98
2022-12-24T16:14:57.377Z,10.99
2022-12-24T16:17:58.801Z,10.98
2022-12-24T16:21:00.543Z,10.91
2022-12-24T16:24:16.276Z,10.91
2022-12-24T16:27:18.322Z,10.94
2022-12-24T16:30:21.490Z,10.94
2022-12-24T16:33:26.363Z,10.95
2022-12-24T16:36:29.639Z,10.96
2022-12-24T16:39:34.438Z,10.96
2022-12-24T16:42:54.303Z,10.96
2022-12-24T16:46:03.903Z,10.93
2022-12-24T16:49:05.366Z,11.08
2022-12-24T16:52:15.364Z,11.04
2022-12-24T16:55:16.875Z,10.96
2022-12-24T16:58:18.859Z,10.91
2022-12-24T17:01:20.348Z,10.91
2022-12-24T17:04:21.881Z,10.89
2022-12-24T17:07:23.349Z,10.88
2022-12-24T17:10:24.819Z,10.89
2022-12-24T17:13:26.646Z,10.85
2022-12-24T17:16:28.554Z,10.85
2022-12-24T17:19:30.007Z,10.83
2022-12-24T17:22:31.654Z,10.81
2022-12-24T17:25:35.780Z,10.78
2022-12-24T17:28:37.588Z,10.76
2022-12-24T17:31:40.507Z,10.73
2022-12-24T17:34:41.962Z,10.74
2022-12-24T17:37:44.822Z,10.72
2022-12-24T17:40:47.090Z,10.68
2022-12-24T17:43:48.691Z,10.69
2022-12-24T17:46:50.238Z,10.67
2022-12-24T17:49:51.669Z,10.67
2022-12-24T17:52:53.042Z,10.68
2022-12-24T17:55:54.502Z,10.67
2022-12-24T17:58:56.547Z,10.69
2022-12-24T18:01:58.030Z,10.65
2022-12-24T18:04:59.563Z,10.65
2022-12-24T18:08:00.963Z,10.61
2022-12-24T18:11:12.992Z,10.63
2022-12-24T18:14:15.236Z,10.66
2022-12-24T18:17:16.698Z,10.66
2022-12-24T18:20:20.145Z,10.68
2022-12-24T18:23:21.591Z,10.68
2022-12-24T18:26:28.228Z,10.67
2022-12-24T18:29:29.850Z,10.72
2022-12-24T18:32:32.029Z,10.71
2022-12-24T18:35:33.456Z,10.77
2022-12-24T18:38:35.312Z,10.77
2022-12-24T18:41:37.376Z,10.75
2022-12-24T18:44:38.922Z,10.74
2022-12-24T18:47:40.304Z,10.75
2022-12-24T18:50:41.846Z,10.72
2022-12-24T18:53:43.355Z,10.72
2022-12-24T18:56:44.741Z,10.71
2022-12-24T18:59:46.212Z,10.73
2022-12-24T19:02:48.452Z,10.74
2022-12-24T19:05:50.042Z,10.71
2022-12-24T19:09:00.804Z,10.73
2022-12-24T19:12:04.213Z,10.73
2022-12-24T19:15:06.409Z,10.75
2022-12-24T19:18:07.804Z,10.74
2022-12-24T19:21:12.119Z,10.74
2022-12-24T19:24:14.292Z,10.76
2022-12-24T19:27:15.688Z,10.75
2022-12-24T19:30:17.185Z,10.77
2022-12-24T19:33:18.623Z,10.76
2022-12-24T19:36:22.928Z,10.76
2022-12-24T19:39:31.699Z,10.77
2022-12-24T19:42:34.298Z,10.78
2022-12-24T19:45:35.807Z,10.78
2022-12-24T19:48:37.264Z,10.82
2022-12-24T19:51:39.191Z,10.79
2022-12-24T19:54:42.526Z,10.80
2022-12-24T19:57:44.187Z,10.82
2022-12-24T20:00:45.662Z,10.80
2022-12-24T20:03:48.643Z,10.75
2022-12-24T20:06:53.510Z,10.75
2022-12-24T20:09:59.607Z,10.74
2022-12-24T20:13:05.868Z,10.77
2022-12-24T20:16:12.726Z,10.75
2022-12-24T20:19:14.946Z,10.73
2022-12-24T20:22:16.417Z,10.74
2022-12-24T20:25:17.943Z,10.73
2022-12-24T20:28:19.379Z,10.76
2022-12-24T20:31:23.481Z,10.78
2022-12-24T20:34:25.170Z,10.79
2022-12-24T20:37:26.936Z,10.83
2022-12-24T20:40:28.333Z,10.86
2022-12-24T20:43:34.774Z,10.88
2022-12-24T20:46:38.950Z,10.85
2022-12-24T20:49:40.350Z,10.85
2022-12-24T20:52:41.970Z,10.86
2022-12-24T20:55:43.399Z,10.84
2022-12-24T20:58:46.620Z,10.85
2022-12-24T21:01:48.289Z,10.87
2022-12-24T21:04:49.803Z,10.86
2022-12-24T21:07:52.086Z,10.84
2022-12-24T21:11:13.538Z,10.81
2022-12-24T21:14:26.548Z,10.79
2022-12-24T21:17:29.580Z,10.82
2022-12-24T21:20:31.547Z,10.85
2022-12-24T21:23:32.969Z,10.84
2022-12-24T21:26:34.598Z,10.89
2022-12-24T21:29:36.140Z,10.85
2022-12-24T21:32:37.889Z,10.84
2022-12-24T21:35:39.388Z,10.81
2022-12-24T21:38:41.308Z,10.90
2022-12-24T21:41:42.719Z,10.87
2022-12-24T21:44:44.232Z,10.83
2022-12-24T21:47:45.631Z,10.81
2022-12-24T21:50:56.958Z,10.75
2022-12-24T21:54:17.100Z,10.77
2022-12-24T21:57:37.215Z,10.77
2022-12-24T22:00:38.832Z,10.77
2022-12-24T22:03:40.311Z,10.72
2022-12-24T22:07:00.543Z,10.68
2022-12-24T22:10:20.510Z,10.67
2022-12-24T22:13:22.727Z,10.63
2022-12-24T22:16:24.270Z,10.65
2022-12-24T22:19:25.772Z,10.65
2022-12-24T22:22:27.231Z,10.62
2022-12-24T22:25:29.828Z,10.63
2022-12-24T22:28:31.279Z,10.65
2022-12-24T22:31:32.815Z,10.66
2022-12-24T22:34:35.114Z,10.70
2022-12-24T22:37:36.547Z,10.68
2022-12-24T22:40:40.953Z,10.66
2022-12-24T22:43:44.472Z,10.66
2022-12-24T22:46:46.061Z,10.68
2022-12-24T22:49:48.209Z,10.68
2022-12-24T22:52:49.631Z,10.68
2022-12-24T22:55:56.372Z,10.67
2022-12-24T22:58:57.909Z,10.65
2022-12-24T23:01:59.631Z,10.69
2022-12-24T23:05:01.110Z,10.65
2022-12-24T23:08:03.201Z,10.65
2022-12-24T23:11:13.214Z,10.66
2022-12-24T23:14:38.355Z,10.62
2022-12-24T23:17:39.798Z,10.63
2022-12-24T23:20:47.066Z,10.64
2022-12-24T23:23:48.718Z,10.60
2022-12-24T23:26:50.148Z,10.59
2022-12-24T23:29:51.552Z,10.59
2022-12-24T23:32:52.939Z,10.59
2022-12-24T23:35:54.558Z,10.61
2022-12-24T23:38:56.098Z,10.60
2022-12-24T23:41:57.474Z,10.57
2022-12-24T23:44:58.853Z,10.55
2022-12-24T23:48:01.473Z,10.55
2022-12-24T23:51:09.883Z,10.56
2022-12-24T23:54:11.288Z,10.54
2022-12-24T23:57:12.736Z,10.54
